首页
METAR-TAF:

METAR-TAF

机场 :

新西伯利亚, 俄罗斯

托尔马切沃机场

纬度: 55-01N, 经度: 082-38E, 海拔: 111米

当前天气观测

该预报发布于24分钟前的03:00 UTC
风速6节,风向北转东北
温度 -34°C
湿度 74%
气压 1045 hPa
能见度10公里或以上
1500米以下无云,无积雨云

METAR: UNNT 200300Z 02003MPS CAVOK M34/M37 Q1045 R25/820155 R16/820155 NOSIG RMK QFE773/1031

时间: 10:24 (03:24 UTC)

预报

该预报发布于1小时和24分钟前的02:00 UTC
预报有效从20日的 03点(UTC)到 21日的 03点(UTC)
风速6节,风向北转东北
能见度10公里或以上
1500米以下无云,无积雨云
短暂存在
从 20日的 03点(UTC)到 20日的 15点(UTC)
能見度: 3100
烟, 轻雾

TAF: UNNT 200200Z 2003/2103 02003MPS CAVOK TEMPO 2003/2015 3100 FU BR

超过4000个机场的气象观测和天气预报(METAR&TAF报告)。

可查询的气象台以黄色和红色小点在地图上表示。

将鼠标移到小点上方,可查看气象台名称。

然后点击查看天气观测和预报。

如需切换地图:点击带黑十字的绿色按钮放大地图;点击带横线的绿色按钮缩小地图;或者点击绿色箭头查看邻近地区的地图。


METAR-TAF: